sensor_id;sensor_type;location;lat;lon;timestamp;P1;durP1;ratioP1;P2;durP2;ratioP2
75007;SDS011;63554;48.940;12.050;2024-03-02T00:00:12;39.00;;;17.77;;
75007;SDS011;63554;48.940;12.050;2024-03-02T00:04:18;38.55;;;18.45;;
75007;SDS011;63554;48.940;12.050;2024-03-02T00:08:25;38.67;;;18.88;;
75007;SDS011;63554;48.940;12.050;2024-03-02T00:12:30;41.90;;;20.05;;
75007;SDS011;63554;48.940;12.050;2024-03-02T00:16:35;39.97;;;19.60;;
75007;SDS011;63554;48.940;12.050;2024-03-02T00:20:40;37.30;;;18.98;;
75007;SDS011;63554;48.940;12.050;2024-03-02T00:24:48;39.33;;;16.48;;
75007;SDS011;63554;48.940;12.050;2024-03-02T00:28:54;36.33;;;18.60;;
75007;SDS011;63554;48.940;12.050;2024-03-02T00:33:02;39.03;;;19.00;;
75007;SDS011;63554;48.940;12.050;2024-03-02T00:37:10;37.60;;;17.27;;
75007;SDS011;63554;48.940;12.050;2024-03-02T00:41:19;34.55;;;17.67;;
75007;SDS011;63554;48.940;12.050;2024-03-02T00:45:26;34.92;;;17.63;;
75007;SDS011;63554;48.940;12.050;2024-03-02T00:49:31;29.20;;;14.43;;
75007;SDS011;63554;48.940;12.050;2024-03-02T00:53:40;28.58;;;14.80;;
75007;SDS011;63554;48.940;12.050;2024-03-02T00:57:48;31.90;;;15.65;;
75007;SDS011;63554;48.940;12.050;2024-03-02T01:01:53;32.60;;;14.85;;
75007;SDS011;63554;48.940;12.050;2024-03-02T01:05:58;33.15;;;17.05;;
75007;SDS011;63554;48.940;12.050;2024-03-02T01:10:04;32.33;;;15.00;;
75007;SDS011;63554;48.940;12.050;2024-03-02T01:14:14;30.15;;;16.30;;
75007;SDS011;63554;48.940;12.050;2024-03-02T01:18:19;34.42;;;15.48;;
75007;SDS011;63554;48.940;12.050;2024-03-02T01:22:24;30.48;;;13.77;;
75007;SDS011;63554;48.940;12.050;2024-03-02T01:26:29;35.38;;;15.43;;
75007;SDS011;63554;48.940;12.050;2024-03-02T01:30:36;35.67;;;15.38;;
75007;SDS011;63554;48.940;12.050;2024-03-02T01:34:41;31.27;;;16.20;;
75007;SDS011;63554;48.940;12.050;2024-03-02T01:38:46;32.22;;;16.52;;
75007;SDS011;63554;48.940;12.050;2024-03-02T01:42:51;33.85;;;15.98;;
75007;SDS011;63554;48.940;12.050;2024-03-02T01:46:58;33.03;;;14.77;;
75007;SDS011;63554;48.940;12.050;2024-03-02T01:51:03;34.72;;;16.95;;
75007;SDS011;63554;48.940;12.050;2024-03-02T01:55:08;29.95;;;14.70;;
75007;SDS011;63554;48.940;12.050;2024-03-02T01:59:13;29.38;;;14.13;;
75007;SDS011;63554;48.940;12.050;2024-03-02T02:03:21;34.33;;;15.30;;
75007;SDS011;63554;48.940;12.050;2024-03-02T02:07:26;32.35;;;17.23;;
75007;SDS011;63554;48.940;12.050;2024-03-02T02:11:31;34.25;;;14.95;;
75007;SDS011;63554;48.940;12.050;2024-03-02T02:15:36;33.75;;;15.48;;
75007;SDS011;63554;48.940;12.050;2024-03-02T02:19:43;29.88;;;15.20;;
75007;SDS011;63554;48.940;12.050;2024-03-02T02:23:51;28.83;;;15.15;;
75007;SDS011;63554;48.940;12.050;2024-03-02T02:27:56;29.92;;;15.85;;
75007;SDS011;63554;48.940;12.050;2024-03-02T02:32:01;22.00;;;12.38;;
75007;SDS011;63554;48.940;12.050;2024-03-02T02:36:06;29.23;;;13.68;;
75007;SDS011;63554;48.940;12.050;2024-03-02T02:40:14;25.98;;;14.57;;
75007;SDS011;63554;48.940;12.050;2024-03-02T02:44:20;22.08;;;12.93;;
75007;SDS011;63554;48.940;12.050;2024-03-02T02:48:25;24.92;;;13.07;;
75007;SDS011;63554;48.940;12.050;2024-03-02T02:52:33;25.23;;;13.60;;
75007;SDS011;63554;48.940;12.050;2024-03-02T02:56:43;25.27;;;14.77;;
75007;SDS011;63554;48.940;12.050;2024-03-02T03:00:49;29.45;;;13.98;;
75007;SDS011;63554;48.940;12.050;2024-03-02T03:04:56;25.48;;;13.73;;
75007;SDS011;63554;48.940;12.050;2024-03-02T03:09:02;26.30;;;11.85;;
75007;SDS011;63554;48.940;12.050;2024-03-02T03:13:09;25.08;;;13.88;;
75007;SDS011;63554;48.940;12.050;2024-03-02T03:17:14;25.23;;;10.50;;
75007;SDS011;63554;48.940;12.050;2024-03-02T03:21:19;29.33;;;13.38;;
75007;SDS011;63554;48.940;12.050;2024-03-02T03:25:24;28.10;;;14.45;;
75007;SDS011;63554;48.940;12.050;2024-03-02T03:29:32;29.27;;;13.52;;
75007;SDS011;63554;48.940;12.050;2024-03-02T03:33:37;25.13;;;13.27;;
75007;SDS011;63554;48.940;12.050;2024-03-02T03:37:42;28.30;;;12.98;;
75007;SDS011;63554;48.940;12.050;2024-03-02T03:41:46;32.60;;;13.60;;
75007;SDS011;63554;48.940;12.050;2024-03-02T03:45:54;32.90;;;15.13;;
75007;SDS011;63554;48.940;12.050;2024-03-02T03:49:59;23.63;;;13.90;;
75007;SDS011;63554;48.940;12.050;2024-03-02T03:58:12;29.17;;;14.63;;
75007;SDS011;63554;48.940;12.050;2024-03-02T04:02:25;27.38;;;12.23;;
75007;SDS011;63554;48.940;12.050;2024-03-02T04:06:30;32.78;;;16.58;;
75007;SDS011;63554;48.940;12.050;2024-03-02T04:10:35;33.53;;;13.57;;
75007;SDS011;63554;48.940;12.050;2024-03-02T04:14:40;27.73;;;14.93;;
75007;SDS011;63554;48.940;12.050;2024-03-02T04:18:48;29.25;;;14.32;;
75007;SDS011;63554;48.940;12.050;2024-03-02T04:22:53;33.15;;;15.95;;
75007;SDS011;63554;48.940;12.050;2024-03-02T04:26:58;29.83;;;13.90;;
75007;SDS011;63554;48.940;12.050;2024-03-02T04:31:04;33.58;;;14.30;;
75007;SDS011;63554;48.940;12.050;2024-03-02T04:35:11;26.55;;;13.65;;
75007;SDS011;63554;48.940;12.050;2024-03-02T04:39:16;33.75;;;15.27;;
75007;SDS011;63554;48.940;12.050;2024-03-02T04:43:21;28.67;;;13.82;;
75007;SDS011;63554;48.940;12.050;2024-03-02T04:47:26;32.50;;;14.75;;
75007;SDS011;63554;48.940;12.050;2024-03-02T04:51:34;30.33;;;14.95;;
75007;SDS011;63554;48.940;12.050;2024-03-02T04:55:39;32.85;;;15.32;;
75007;SDS011;63554;48.940;12.050;2024-03-02T04:59:56;37.38;;;14.60;;
75007;SDS011;63554;48.940;12.050;2024-03-02T05:04:01;28.42;;;14.63;;
75007;SDS011;63554;48.940;12.050;2024-03-02T05:08:09;29.70;;;14.63;;
75007;SDS011;63554;48.940;12.050;2024-03-02T05:12:14;31.50;;;16.85;;
75007;SDS011;63554;48.940;12.050;2024-03-02T05:16:42;27.77;;;14.77;;
75007;SDS011;63554;48.940;12.050;2024-03-02T05:20:47;28.35;;;12.82;;
75007;SDS011;63554;48.940;12.050;2024-03-02T05:24:54;26.90;;;14.35;;
75007;SDS011;63554;48.940;12.050;2024-03-02T05:29:01;28.42;;;15.02;;
75007;SDS011;63554;48.940;12.050;2024-03-02T05:33:05;30.08;;;13.45;;
75007;SDS011;63554;48.940;12.050;2024-03-02T05:37:10;31.20;;;13.60;;
75007;SDS011;63554;48.940;12.050;2024-03-02T05:41:18;28.52;;;13.77;;
75007;SDS011;63554;48.940;12.050;2024-03-02T05:45:22;27.50;;;14.60;;
75007;SDS011;63554;48.940;12.050;2024-03-02T05:49:27;25.85;;;12.35;;
75007;SDS011;63554;48.940;12.050;2024-03-02T05:53:32;24.95;;;13.20;;
75007;SDS011;63554;48.940;12.050;2024-03-02T05:57:42;24.00;;;12.27;;
75007;SDS011;63554;48.940;12.050;2024-03-02T06:02:04;24.80;;;12.00;;
75007;SDS011;63554;48.940;12.050;2024-03-02T06:06:09;29.15;;;14.60;;
75007;SDS011;63554;48.940;12.050;2024-03-02T06:10:14;25.67;;;13.00;;
75007;SDS011;63554;48.940;12.050;2024-03-02T06:14:21;28.27;;;13.68;;
75007;SDS011;63554;48.940;12.050;2024-03-02T06:18:26;22.88;;;12.55;;
75007;SDS011;63554;48.940;12.050;2024-03-02T06:22:31;24.38;;;13.23;;
75007;SDS011;63554;48.940;12.050;2024-03-02T06:26:36;25.58;;;13.15;;
75007;SDS011;63554;48.940;12.050;2024-03-02T06:30:44;23.55;;;12.63;;
75007;SDS011;63554;48.940;12.050;2024-03-02T06:34:49;24.02;;;14.18;;
75007;SDS011;63554;48.940;12.050;2024-03-02T06:38:54;25.33;;;13.45;;
75007;SDS011;63554;48.940;12.050;2024-03-02T06:42:59;30.23;;;15.38;;
75007;SDS011;63554;48.940;12.050;2024-03-02T06:47:06;28.50;;;14.20;;
75007;SDS011;63554;48.940;12.050;2024-03-02T06:51:11;33.42;;;16.13;;
75007;SDS011;63554;48.940;12.050;2024-03-02T06:55:17;33.58;;;15.73;;
75007;SDS011;63554;48.940;12.050;2024-03-02T06:59:22;38.30;;;16.85;;
75007;SDS011;63554;48.940;12.050;2024-03-02T07:03:29;27.65;;;13.88;;
75007;SDS011;63554;48.940;12.050;2024-03-02T07:07:34;32.42;;;14.15;;
75007;SDS011;63554;48.940;12.050;2024-03-02T07:11:39;27.63;;;10.52;;
75007;SDS011;63554;48.940;12.050;2024-03-02T07:15:44;34.70;;;14.63;;
75007;SDS011;63554;48.940;12.050;2024-03-02T07:20:10;34.40;;;15.30;;
75007;SDS011;63554;48.940;12.050;2024-03-02T07:24:16;28.60;;;13.20;;
75007;SDS011;63554;48.940;12.050;2024-03-02T07:28:20;29.35;;;12.57;;
75007;SDS011;63554;48.940;12.050;2024-03-02T07:32:25;27.35;;;12.88;;
75007;SDS011;63554;48.940;12.050;2024-03-02T07:36:33;27.20;;;13.40;;
75007;SDS011;63554;48.940;12.050;2024-03-02T07:40:38;29.38;;;12.00;;
75007;SDS011;63554;48.940;12.050;2024-03-02T07:44:43;27.52;;;14.57;;
75007;SDS011;63554;48.940;12.050;2024-03-02T07:48:48;27.25;;;13.52;;
75007;SDS011;63554;48.940;12.050;2024-03-02T07:52:56;26.08;;;12.68;;
75007;SDS011;63554;48.940;12.050;2024-03-02T07:57:01;27.25;;;14.30;;
75007;SDS011;63554;48.940;12.050;2024-03-02T08:01:06;26.38;;;14.80;;
75007;SDS011;63554;48.940;12.050;2024-03-02T08:05:10;26.00;;;13.60;;
75007;SDS011;63554;48.940;12.050;2024-03-02T08:09:18;14.57;;;8.85;;
75007;SDS011;63554;48.940;12.050;2024-03-02T08:13:23;13.35;;;7.35;;
75007;SDS011;63554;48.940;12.050;2024-03-02T08:17:28;16.17;;;8.32;;
75007;SDS011;63554;48.940;12.050;2024-03-02T08:21:35;15.70;;;9.85;;
75007;SDS011;63554;48.940;12.050;2024-03-02T08:25:43;15.20;;;8.10;;
75007;SDS011;63554;48.940;12.050;2024-03-02T08:29:48;18.88;;;9.18;;
75007;SDS011;63554;48.940;12.050;2024-03-02T08:33:54;13.70;;;6.32;;
75007;SDS011;63554;48.940;12.050;2024-03-02T08:38:00;15.13;;;8.98;;
75007;SDS011;63554;48.940;12.050;2024-03-02T08:42:07;9.95;;;7.22;;
75007;SDS011;63554;48.940;12.050;2024-03-02T08:46:12;16.65;;;7.18;;
75007;SDS011;63554;48.940;12.050;2024-03-02T08:50:17;15.35;;;8.18;;
75007;SDS011;63554;48.940;12.050;2024-03-02T08:54:22;11.25;;;6.45;;
75007;SDS011;63554;48.940;12.050;2024-03-02T08:58:30;19.17;;;10.55;;
75007;SDS011;63554;48.940;12.050;2024-03-02T09:02:34;18.55;;;9.13;;
75007;SDS011;63554;48.940;12.050;2024-03-02T09:06:39;14.13;;;9.13;;
75007;SDS011;63554;48.940;12.050;2024-03-02T09:10:44;13.50;;;8.77;;
75007;SDS011;63554;48.940;12.050;2024-03-02T09:14:52;17.35;;;10.45;;
75007;SDS011;63554;48.940;12.050;2024-03-02T09:18:57;19.52;;;9.10;;
75007;SDS011;63554;48.940;12.050;2024-03-02T09:23:02;13.07;;;6.60;;
75007;SDS011;63554;48.940;12.050;2024-03-02T09:27:07;12.18;;;7.88;;
75007;SDS011;63554;48.940;12.050;2024-03-02T09:31:14;16.73;;;8.85;;
75007;SDS011;63554;48.940;12.050;2024-03-02T09:35:20;15.10;;;7.30;;
75007;SDS011;63554;48.940;12.050;2024-03-02T09:39:24;16.38;;;7.68;;
75007;SDS011;63554;48.940;12.050;2024-03-02T09:43:29;12.77;;;6.53;;
75007;SDS011;63554;48.940;12.050;2024-03-02T09:47:37;11.40;;;5.95;;
75007;SDS011;63554;48.940;12.050;2024-03-02T09:51:43;16.88;;;8.00;;
75007;SDS011;63554;48.940;12.050;2024-03-02T09:55:51;16.65;;;8.45;;
75007;SDS011;63554;48.940;12.050;2024-03-02T09:59:56;13.27;;;8.57;;
75007;SDS011;63554;48.940;12.050;2024-03-02T10:04:03;22.05;;;7.75;;
75007;SDS011;63554;48.940;12.050;2024-03-02T10:08:10;18.05;;;9.45;;
75007;SDS011;63554;48.940;12.050;2024-03-02T10:12:15;14.90;;;7.35;;
75007;SDS011;63554;48.940;12.050;2024-03-02T10:16:20;13.00;;;7.45;;
75007;SDS011;63554;48.940;12.050;2024-03-02T10:20:28;15.90;;;8.00;;
75007;SDS011;63554;48.940;12.050;2024-03-02T10:24:35;15.43;;;6.70;;
75007;SDS011;63554;48.940;12.050;2024-03-02T10:28:45;17.83;;;8.07;;
75007;SDS011;63554;48.940;12.050;2024-03-02T10:32:52;15.43;;;7.03;;
75007;SDS011;63554;48.940;12.050;2024-03-02T10:37:01;13.40;;;7.28;;
75007;SDS011;63554;48.940;12.050;2024-03-02T10:41:07;13.98;;;6.55;;
75007;SDS011;63554;48.940;12.050;2024-03-02T10:45:12;16.08;;;8.55;;
75007;SDS011;63554;48.940;12.050;2024-03-02T10:49:19;12.70;;;7.38;;
75007;SDS011;63554;48.940;12.050;2024-03-02T10:53:29;10.30;;;5.28;;
75007;SDS011;63554;48.940;12.050;2024-03-02T10:57:38;11.02;;;6.53;;
75007;SDS011;63554;48.940;12.050;2024-03-02T11:01:47;14.20;;;7.13;;
75007;SDS011;63554;48.940;12.050;2024-03-02T11:05:52;12.15;;;6.43;;
75007;SDS011;63554;48.940;12.050;2024-03-02T11:10:00;12.07;;;5.07;;
75007;SDS011;63554;48.940;12.050;2024-03-02T11:14:11;13.18;;;7.35;;
75007;SDS011;63554;48.940;12.050;2024-03-02T11:18:18;7.75;;;5.97;;
75007;SDS011;63554;48.940;12.050;2024-03-02T11:22:24;12.63;;;7.53;;
75007;SDS011;63554;48.940;12.050;2024-03-02T11:26:32;12.88;;;7.38;;
75007;SDS011;63554;48.940;12.050;2024-03-02T11:30:49;16.67;;;7.55;;
75007;SDS011;63554;48.940;12.050;2024-03-02T11:34:55;16.15;;;8.55;;
75007;SDS011;63554;48.940;12.050;2024-03-02T11:39:00;12.95;;;7.15;;
75007;SDS011;63554;48.940;12.050;2024-03-02T11:43:08;14.05;;;7.85;;
75007;SDS011;63554;48.940;12.050;2024-03-02T11:47:14;16.98;;;8.55;;
75007;SDS011;63554;48.940;12.050;2024-03-02T11:55:24;16.40;;;7.93;;
75007;SDS011;63554;48.940;12.050;2024-03-02T11:59:33;14.25;;;7.35;;
75007;SDS011;63554;48.940;12.050;2024-03-02T12:03:38;8.98;;;4.38;;
75007;SDS011;63554;48.940;12.050;2024-03-02T12:07:43;15.38;;;6.93;;
75007;SDS011;63554;48.940;12.050;2024-03-02T12:11:48;14.10;;;6.63;;
75007;SDS011;63554;48.940;12.050;2024-03-02T12:16:08;11.82;;;7.03;;
75007;SDS011;63554;48.940;12.050;2024-03-02T12:20:13;12.40;;;6.20;;
75007;SDS011;63554;48.940;12.050;2024-03-02T12:24:18;15.60;;;8.02;;
75007;SDS011;63554;48.940;12.050;2024-03-02T12:28:23;21.13;;;8.70;;
75007;SDS011;63554;48.940;12.050;2024-03-02T12:32:31;13.98;;;6.63;;
75007;SDS011;63554;48.940;12.050;2024-03-02T12:36:37;16.77;;;8.60;;
75007;SDS011;63554;48.940;12.050;2024-03-02T12:40:43;13.57;;;7.88;;
75007;SDS011;63554;48.940;12.050;2024-03-02T12:44:48;11.40;;;7.95;;
75007;SDS011;63554;48.940;12.050;2024-03-02T12:48:55;15.18;;;7.57;;
75007;SDS011;63554;48.940;12.050;2024-03-02T12:53:00;15.13;;;8.82;;
75007;SDS011;63554;48.940;12.050;2024-03-02T12:57:05;15.20;;;7.45;;
75007;SDS011;63554;48.940;12.050;2024-03-02T13:01:10;18.50;;;8.52;;
75007;SDS011;63554;48.940;12.050;2024-03-02T13:05:19;13.15;;;7.65;;
75007;SDS011;63554;48.940;12.050;2024-03-02T13:09:24;11.68;;;7.35;;
75007;SDS011;63554;48.940;12.050;2024-03-02T13:13:30;18.83;;;8.52;;
75007;SDS011;63554;48.940;12.050;2024-03-02T13:17:36;18.02;;;9.02;;
75007;SDS011;63554;48.940;12.050;2024-03-02T13:21:43;17.17;;;8.02;;
75007;SDS011;63554;48.940;12.050;2024-03-02T13:25:48;15.40;;;8.48;;
75007;SDS011;63554;48.940;12.050;2024-03-02T13:29:53;15.68;;;7.97;;
75007;SDS011;63554;48.940;12.050;2024-03-02T13:33:58;11.57;;;5.47;;
75007;SDS011;63554;48.940;12.050;2024-03-02T13:38:06;17.38;;;7.38;;
75007;SDS011;63554;48.940;12.050;2024-03-02T13:42:11;10.57;;;6.20;;
75007;SDS011;63554;48.940;12.050;2024-03-02T13:46:16;12.70;;;7.05;;
75007;SDS011;63554;48.940;12.050;2024-03-02T13:50:22;6.65;;;3.72;;
75007;SDS011;63554;48.940;12.050;2024-03-02T13:54:29;12.85;;;7.40;;
75007;SDS011;63554;48.940;12.050;2024-03-02T13:58:34;13.38;;;7.35;;
75007;SDS011;63554;48.940;12.050;2024-03-02T14:02:39;19.10;;;8.18;;
75007;SDS011;63554;48.940;12.050;2024-03-02T14:06:44;14.15;;;7.82;;
75007;SDS011;63554;48.940;12.050;2024-03-02T14:10:52;11.82;;;6.68;;
75007;SDS011;63554;48.940;12.050;2024-03-02T14:18:16;7.47;;;3.95;;
75007;SDS011;63554;48.940;12.050;2024-03-02T14:22:23;16.42;;;8.02;;
75007;SDS011;63554;48.940;12.050;2024-03-02T14:26:28;15.57;;;7.45;;
75007;SDS011;63554;48.940;12.050;2024-03-02T14:30:35;12.80;;;6.45;;
75007;SDS011;63554;48.940;12.050;2024-03-02T14:34:43;11.55;;;7.18;;
75007;SDS011;63554;48.940;12.050;2024-03-02T14:38:49;15.95;;;7.90;;
75007;SDS011;63554;48.940;12.050;2024-03-02T14:42:54;12.18;;;7.82;;
75007;SDS011;63554;48.940;12.050;2024-03-02T14:46:59;12.15;;;6.35;;
75007;SDS011;63554;48.940;12.050;2024-03-02T14:51:08;8.05;;;5.55;;
75007;SDS011;63554;48.940;12.050;2024-03-02T14:55:13;6.78;;;2.88;;
75007;SDS011;63554;48.940;12.050;2024-03-02T14:59:18;13.32;;;6.30;;
75007;SDS011;63554;48.940;12.050;2024-03-02T15:03:23;8.98;;;4.00;;
75007;SDS011;63554;48.940;12.050;2024-03-02T15:07:31;8.65;;;4.85;;
75007;SDS011;63554;48.940;12.050;2024-03-02T15:11:35;7.60;;;5.57;;
75007;SDS011;63554;48.940;12.050;2024-03-02T15:15:40;14.38;;;8.13;;
75007;SDS011;63554;48.940;12.050;2024-03-02T15:19:45;12.23;;;6.10;;
75007;SDS011;63554;48.940;12.050;2024-03-02T15:23:53;9.07;;;6.25;;
75007;SDS011;63554;48.940;12.050;2024-03-02T15:27:58;14.15;;;6.35;;
75007;SDS011;63554;48.940;12.050;2024-03-02T15:32:03;11.35;;;6.13;;
75007;SDS011;63554;48.940;12.050;2024-03-02T15:36:09;11.55;;;5.00;;
75007;SDS011;63554;48.940;12.050;2024-03-02T15:40:16;13.75;;;5.97;;
75007;SDS011;63554;48.940;12.050;2024-03-02T15:44:22;14.02;;;7.03;;
75007;SDS011;63554;48.940;12.050;2024-03-02T15:48:27;8.27;;;5.57;;
75007;SDS011;63554;48.940;12.050;2024-03-02T15:55:27;9.55;;;4.90;;
75007;SDS011;63554;48.940;12.050;2024-03-02T15:59:32;11.02;;;5.55;;
75007;SDS011;63554;48.940;12.050;2024-03-02T16:05:24;10.95;;;5.63;;
75007;SDS011;63554;48.940;12.050;2024-03-02T16:09:29;10.57;;;5.32;;
75007;SDS011;63554;48.940;12.050;2024-03-02T16:13:33;10.68;;;6.63;;
75007;SDS011;63554;48.940;12.050;2024-03-02T16:17:38;9.48;;;5.85;;
75007;SDS011;63554;48.940;12.050;2024-03-02T16:21:45;12.77;;;7.00;;
75007;SDS011;63554;48.940;12.050;2024-03-02T16:25:50;13.88;;;6.90;;
75007;SDS011;63554;48.940;12.050;2024-03-02T16:29:55;12.65;;;7.00;;
